createdAt,value
2023-02-19T00:05:02.013Z,17.60
2023-02-19T00:10:05.570Z,16.92
2023-02-19T00:15:07.712Z,16.42
2023-02-19T00:20:10.056Z,17.73
2023-02-19T00:25:13.158Z,18.45
2023-02-19T00:30:14.934Z,18.25
2023-02-19T00:35:16.935Z,17.90
2023-02-19T00:40:20.152Z,18.98
2023-02-19T00:45:22.057Z,17.00
2023-02-19T00:50:23.754Z,18.12
2023-02-19T00:55:26.941Z,18.40
2023-02-19T01:00:28.671Z,18.77
2023-02-19T01:05:30.457Z,17.45
2023-02-19T01:10:33.614Z,17.40
2023-02-19T01:15:35.990Z,17.90
2023-02-19T01:20:39.017Z,18.17
2023-02-19T01:25:42.611Z,18.40
2023-02-19T01:30:44.370Z,17.52
2023-02-19T01:35:46.096Z,15.65
2023-02-19T01:40:55.731Z,15.90
2023-02-19T01:45:57.519Z,16.42
2023-02-19T01:51:07.096Z,15.52
2023-02-19T01:56:11.487Z,16.55
2023-02-19T02:01:13.916Z,15.23
2023-02-19T02:06:21.250Z,15.85
2023-02-19T02:11:25.112Z,14.10
2023-02-19T02:16:36.993Z,15.73
2023-02-19T02:22:04.484Z,16.05
2023-02-19T02:27:27.313Z,15.07
2023-02-19T02:32:37.188Z,15.43
2023-02-19T02:37:42.085Z,16.40
2023-02-19T02:42:44.127Z,16.60
2023-02-19T02:47:53.345Z,16.00
2023-02-19T02:53:00.060Z,16.42
2023-02-19T02:58:02.536Z,15.68
2023-02-19T03:03:08.096Z,16.12
2023-02-19T03:08:14.629Z,16.27
2023-02-19T03:13:20.631Z,16.15
2023-02-19T03:18:26.240Z,14.10
2023-02-19T03:23:32.502Z,16.10
2023-02-19T03:28:37.694Z,15.98
2023-02-19T03:38:48.247Z,15.85
2023-02-19T03:43:55.812Z,14.45
2023-02-19T03:49:04.002Z,15.00
2023-02-19T03:54:13.061Z,14.15
2023-02-19T03:59:19.035Z,13.05
2023-02-19T04:04:27.426Z,13.95
2023-02-19T04:09:33.175Z,13.70
2023-02-19T04:14:39.577Z,14.20
2023-02-19T04:19:43.086Z,14.40
2023-02-19T04:24:49.147Z,15.23
2023-02-19T04:29:50.951Z,13.40
2023-02-19T04:34:54.447Z,15.02
2023-02-19T04:39:58.620Z,13.93
2023-02-19T04:45:00.530Z,14.57
2023-02-19T04:50:06.539Z,14.85
2023-02-19T04:55:09.147Z,13.43
2023-02-19T05:00:11.828Z,14.25
2023-02-19T05:05:17.228Z,13.15
2023-02-19T05:10:19.100Z,12.95
2023-02-19T05:15:20.870Z,12.37
2023-02-19T05:20:24.016Z,12.43
2023-02-19T05:25:25.717Z,13.73
2023-02-19T05:30:30.057Z,13.85
2023-02-19T05:35:40.117Z,14.63
2023-02-19T05:40:43.059Z,13.20
2023-02-19T05:45:44.833Z,13.88
2023-02-19T05:50:47.956Z,13.48
2023-02-19T05:55:49.771Z,13.93
2023-02-19T06:00:51.961Z,13.00
2023-02-19T06:05:55.037Z,13.98
2023-02-19T06:10:57.883Z,13.10
2023-02-19T06:15:59.819Z,13.43
2023-02-19T06:21:11.606Z,12.60
2023-02-19T06:26:16.113Z,12.70
2023-02-19T06:31:19.299Z,12.57
2023-02-19T06:36:23.425Z,12.35
2023-02-19T06:41:25.313Z,12.68
2023-02-19T06:46:27.183Z,11.98
2023-02-19T06:51:30.417Z,12.73
2023-02-19T06:56:33.903Z,12.13
2023-02-19T07:01:36.530Z,11.32
2023-02-19T07:06:39.743Z,11.48
2023-02-19T07:11:41.484Z,11.93
2023-02-19T07:16:43.563Z,12.98
2023-02-19T07:21:46.754Z,12.70
2023-02-19T07:26:48.446Z,13.62
2023-02-19T07:31:50.303Z,13.62
2023-02-19T07:36:53.468Z,12.80
2023-02-19T07:41:55.288Z,12.95
2023-02-19T07:46:57.039Z,14.48
2023-02-19T07:52:00.190Z,13.13
2023-02-19T07:57:01.921Z,12.15
2023-02-19T08:02:03.680Z,12.50
2023-02-19T08:07:06.764Z,12.10
2023-02-19T08:12:11.872Z,13.20
2023-02-19T08:22:16.623Z,14.20
2023-02-19T08:27:18.364Z,12.75
2023-02-19T08:32:20.016Z,12.48
2023-02-19T08:37:23.202Z,11.88
2023-02-19T08:42:24.919Z,13.15
2023-02-19T08:47:26.678Z,12.68
2023-02-19T08:52:29.872Z,12.68
2023-02-19T08:57:31.626Z,13.80
2023-02-19T09:02:33.868Z,13.40
2023-02-19T09:07:37.275Z,13.60
2023-02-19T09:12:39.046Z,12.23
2023-02-19T09:18:16.886Z,12.55
2023-02-19T09:23:20.115Z,14.45
2023-02-19T09:28:21.850Z,12.88
2023-02-19T09:33:23.737Z,13.18
2023-02-19T09:38:53.584Z,12.73
2023-02-19T09:44:01.369Z,13.07
2023-02-19T09:49:06.475Z,13.18
2023-02-19T09:54:39.624Z,13.25
2023-02-19T09:59:45.205Z,14.68
2023-02-19T10:04:47.898Z,13.02
2023-02-19T10:09:55.388Z,13.10
2023-02-19T10:15:05.200Z,13.55
2023-02-19T10:20:10.209Z,13.52
2023-02-19T10:25:16.003Z,13.38
2023-02-19T10:30:22.146Z,15.18
2023-02-19T10:35:24.031Z,13.80
2023-02-19T10:40:28.673Z,13.25
2023-02-19T10:45:40.650Z,13.88
2023-02-19T10:50:42.479Z,13.50
2023-02-19T10:55:48.323Z,13.32
2023-02-19T11:01:14.607Z,14.15
2023-02-19T11:06:19.692Z,14.40
2023-02-19T11:16:46.205Z,13.57
2023-02-19T11:21:48.266Z,14.80
2023-02-19T11:26:51.418Z,14.50
2023-02-19T11:31:53.208Z,16.20
2023-02-19T11:37:08.922Z,12.82
2023-02-19T11:42:33.450Z,13.43
2023-02-19T11:48:05.610Z,13.85
2023-02-19T11:53:17.037Z,14.38
2023-02-19T11:58:49.362Z,14.35
2023-02-19T12:04:16.422Z,12.73
2023-02-19T12:09:30.036Z,14.05
2023-02-19T12:15:10.560Z,12.88
2023-02-19T12:20:21.582Z,14.32
2023-02-19T12:25:44.404Z,14.27
2023-02-19T12:31:21.743Z,15.00
2023-02-19T12:36:31.199Z,14.50
2023-02-19T12:41:42.674Z,13.85
2023-02-19T12:46:49.404Z,13.07
2023-02-19T12:51:57.827Z,13.60
2023-02-19T12:57:02.934Z,17.08
2023-02-19T13:02:15.025Z,15.57
2023-02-19T13:07:20.520Z,13.62
2023-02-19T13:12:26.102Z,13.77
2023-02-19T13:17:38.385Z,11.90
2023-02-19T13:22:45.435Z,17.50
2023-02-19T13:28:06.393Z,13.13
2023-02-19T13:33:27.593Z,13.77
2023-02-19T13:38:29.499Z,12.45
2023-02-19T13:43:35.171Z,13.73
2023-02-19T13:48:40.558Z,13.55
2023-02-19T13:53:58.964Z,14.48
2023-02-19T13:59:13.904Z,13.02
2023-02-19T14:04:20.642Z,14.10
2023-02-19T14:09:46.691Z,16.15
2023-02-19T14:14:49.034Z,14.40
2023-02-19T14:20:01.928Z,14.85
2023-02-19T14:25:07.814Z,17.30
2023-02-19T14:30:12.084Z,15.60
2023-02-19T14:35:20.194Z,15.37
2023-02-19T14:40:39.342Z,15.02
2023-02-19T14:45:44.254Z,15.85
2023-02-19T14:50:50.481Z,14.32
2023-02-19T14:55:54.832Z,13.70
2023-02-19T15:00:56.911Z,14.90
2023-02-19T15:06:03.346Z,18.73
2023-02-19T15:11:11.130Z,14.05
2023-02-19T15:16:19.129Z,15.32
2023-02-19T15:21:25.272Z,15.10
2023-02-19T15:26:34.050Z,14.63
2023-02-19T15:31:36.207Z,15.18
2023-02-19T15:36:39.509Z,15.68
2023-02-19T15:41:41.221Z,14.80
2023-02-19T15:46:44.598Z,14.23
2023-02-19T15:51:52.216Z,14.35
2023-02-19T15:56:55.947Z,13.18
2023-02-19T16:01:58.991Z,14.32
2023-02-19T16:07:03.248Z,14.10
2023-02-19T16:12:20.731Z,16.30
2023-02-19T16:17:25.465Z,18.70
2023-02-19T16:22:31.257Z,14.20
2023-02-19T16:27:35.242Z,15.05
2023-02-19T16:32:36.999Z,14.25
2023-02-19T16:37:41.619Z,14.07
2023-02-19T16:43:26.137Z,15.13
2023-02-19T16:48:28.354Z,14.60
2023-02-19T16:53:31.431Z,14.05
2023-02-19T16:58:33.171Z,13.02
2023-02-19T17:03:37.378Z,14.80
2023-02-19T17:08:42.062Z,14.07
2023-02-19T17:13:44.804Z,13.52
2023-02-19T17:18:46.879Z,14.30
2023-02-19T17:23:50.323Z,12.75
2023-02-19T17:28:52.269Z,14.55
2023-02-19T17:33:54.428Z,13.27
2023-02-19T17:38:57.902Z,13.88
2023-02-19T17:43:59.680Z,14.40
2023-02-19T17:49:01.361Z,14.07
2023-02-19T17:54:06.344Z,13.20
2023-02-19T17:59:10.072Z,12.48
2023-02-19T18:04:11.897Z,14.23
2023-02-19T18:09:15.044Z,14.02
2023-02-19T18:14:16.856Z,14.55
2023-02-19T18:19:19.072Z,13.68
2023-02-19T18:24:22.234Z,13.02
2023-02-19T18:29:23.988Z,13.00
2023-02-19T18:34:25.695Z,15.90
2023-02-19T18:39:28.717Z,15.13
2023-02-19T18:44:30.495Z,14.52
2023-02-19T18:49:32.314Z,15.07
2023-02-19T18:54:35.399Z,13.93
2023-02-19T18:59:38.999Z,16.23
2023-02-19T19:04:41.146Z,14.38
2023-02-19T19:09:44.291Z,18.77
2023-02-19T19:14:46.173Z,17.50
2023-02-19T19:19:47.902Z,16.52
2023-02-19T19:24:51.032Z,14.52
2023-02-19T19:29:52.825Z,15.27
2023-02-19T19:34:54.679Z,15.27
2023-02-19T19:39:57.998Z,16.98
2023-02-19T19:44:59.832Z,16.00
2023-02-19T19:50:04.261Z,14.23
2023-02-19T19:55:08.286Z,20.03
2023-02-19T20:00:15.465Z,14.98
2023-02-19T20:05:23.973Z,14.77
2023-02-19T20:16:46.019Z,15.43
2023-02-19T20:33:15.181Z,15.80
2023-02-19T20:38:19.693Z,16.85
2023-02-19T20:48:42.189Z,15.05
2023-02-19T20:53:44.128Z,15.60
2023-02-19T20:58:45.900Z,16.15
2023-02-19T21:03:54.597Z,16.70
2023-02-19T21:08:56.482Z,16.00
2023-02-19T21:13:58.475Z,17.62
2023-02-19T21:19:01.960Z,16.42
2023-02-19T21:24:04.148Z,16.75
2023-02-19T21:29:07.196Z,17.15
2023-02-19T21:34:12.028Z,18.67
2023-02-19T21:39:15.888Z,17.42
2023-02-19T21:44:18.073Z,17.92
2023-02-19T21:49:21.389Z,17.75
2023-02-19T21:54:25.476Z,16.35
2023-02-19T21:59:27.499Z,19.27
2023-02-19T22:04:30.724Z,17.60
2023-02-19T22:09:32.671Z,20.95
2023-02-19T22:14:34.682Z,17.60
2023-02-19T22:19:38.136Z,16.77
2023-02-19T22:24:39.953Z,17.23
2023-02-19T22:29:42.069Z,17.02
2023-02-19T22:34:45.476Z,22.73
2023-02-19T22:39:47.329Z,19.77
2023-02-19T22:44:49.135Z,17.70
2023-02-19T22:49:52.632Z,17.25
2023-02-19T22:54:54.645Z,19.60
2023-02-19T22:59:56.442Z,20.48
2023-02-19T23:04:59.747Z,18.23
2023-02-19T23:10:01.655Z,21.08
2023-02-19T23:15:04.366Z,19.92
2023-02-19T23:20:08.879Z,18.65
2023-02-19T23:25:10.894Z,19.65
2023-02-19T23:30:13.274Z,20.37
2023-02-19T23:35:16.494Z,19.25
2023-02-19T23:40:21.852Z,20.08
2023-02-19T23:45:23.856Z,21.92
2023-02-19T23:50:27.069Z,18.45
2023-02-19T23:55:28.993Z,21.62
